createdAt,value
2022-11-20T00:00:06.432Z,3.1
2022-11-20T00:05:16.835Z,3
2022-11-20T00:11:06.384Z,3.2
2022-11-20T00:16:06.413Z,3.4
2022-11-20T00:21:06.528Z,2.9
2022-11-20T00:26:16.658Z,3.1
2022-11-20T00:31:16.705Z,3.4
2022-11-20T00:36:16.675Z,3.4
2022-11-20T00:42:06.454Z,3.2
2022-11-20T00:47:16.690Z,3.2
2022-11-20T00:52:16.710Z,3.6
2022-11-20T00:58:11.528Z,3.5
2022-11-20T01:03:26.650Z,3
2022-11-20T01:09:06.384Z,3.1
2022-11-20T01:14:06.368Z,2.7
2022-11-20T01:19:18.245Z,3
2022-11-20T01:25:06.142Z,3
2022-11-20T01:30:06.399Z,2.9
2022-11-20T01:35:06.987Z,3
2022-11-20T01:40:16.685Z,3.2
2022-11-20T01:46:06.154Z,3.2
2022-11-20T01:51:06.955Z,3.1
2022-11-20T01:56:16.763Z,3.3
2022-11-20T02:02:06.520Z,3.1
2022-11-20T02:07:16.787Z,3.2
2022-11-20T02:13:06.162Z,3.5
2022-11-20T02:18:16.445Z,3.2
2022-11-20T02:24:06.112Z,3.4
2022-11-20T02:29:06.176Z,3.2
2022-11-20T02:34:06.188Z,2.8
2022-11-20T02:39:16.412Z,3.3
2022-11-20T02:44:16.458Z,3.5
2022-11-20T02:49:16.503Z,3.4
2022-11-20T02:55:06.166Z,3.1
2022-11-20T03:00:16.453Z,3.4
2022-11-20T03:06:06.353Z,3.2
2022-11-20T03:11:16.560Z,3
2022-11-20T03:17:06.229Z,3.2
2022-11-20T03:22:16.375Z,3.3
2022-11-20T03:27:16.443Z,3.1
2022-11-20T03:32:16.451Z,3.3
2022-11-20T03:37:16.645Z,3.3
2022-11-20T03:42:16.614Z,3.2
2022-11-20T03:48:06.325Z,3.3
2022-11-20T03:53:16.677Z,3.2
2022-11-20T03:59:06.919Z,3.2
2022-11-20T04:04:16.431Z,3.5
2022-11-20T04:09:16.794Z,3.3
2022-11-20T04:15:06.295Z,2.8
2022-11-20T04:20:16.614Z,2.8
2022-11-20T04:26:06.154Z,3.1
2022-11-20T04:31:06.304Z,3.2
2022-11-20T04:36:17.712Z,3.4
2022-11-20T04:42:06.165Z,3.5
2022-11-20T04:47:06.513Z,3.3
2022-11-20T04:52:16.575Z,3.2
2022-11-20T04:57:16.582Z,2.8
2022-11-20T05:02:16.603Z,3.4
2022-11-20T05:07:16.692Z,3
2022-11-20T05:13:06.116Z,2.7
2022-11-20T05:18:06.347Z,3
2022-11-20T05:23:06.352Z,3.1
2022-11-20T05:28:06.615Z,3.2
2022-11-20T05:33:16.379Z,2.8
2022-11-20T05:38:16.648Z,3.1
2022-11-20T05:44:06.413Z,3.4
2022-11-20T05:49:18.993Z,3.2
2022-11-20T05:55:06.331Z,3.1
2022-11-20T06:00:16.652Z,3.5
2022-11-20T06:05:16.712Z,3.2
2022-11-20T06:11:06.361Z,3
2022-11-20T06:16:09.013Z,3.3
2022-11-20T06:21:16.462Z,3.2
2022-11-20T06:27:06.297Z,3.4
2022-11-20T06:32:06.752Z,3.2
2022-11-20T06:37:16.598Z,3.4
2022-11-20T06:43:06.318Z,3.1
2022-11-20T06:48:06.462Z,3.4
2022-11-20T06:53:06.549Z,3.3
2022-11-20T06:58:16.625Z,3.3
2022-11-20T07:04:06.327Z,3.4
2022-11-20T07:09:16.460Z,3.7
2022-11-20T07:15:06.333Z,3.3
2022-11-20T07:20:06.368Z,3.4
2022-11-20T07:25:07.932Z,3.3
2022-11-20T07:30:16.417Z,3.8
2022-11-20T07:36:06.073Z,3.7
2022-11-20T07:41:06.148Z,3.3
2022-11-20T07:46:16.456Z,3.5
2022-11-20T07:52:06.099Z,3.1
2022-11-20T07:57:06.287Z,3.5
2022-11-20T08:02:06.295Z,3.5
2022-11-20T08:07:16.457Z,4.1
2022-11-20T08:13:06.122Z,3.9
2022-11-20T08:18:30.123Z,3.4
2022-11-20T08:23:16.313Z,4.3
2022-11-20T08:28:21.350Z,4.7
2022-11-20T08:34:09.149Z,4.3
2022-11-20T08:39:16.306Z,4.5
2022-11-20T08:44:16.322Z,4.5
2022-11-20T08:49:16.321Z,4.7
2022-11-20T08:55:06.305Z,4.9
2022-11-20T09:00:16.592Z,4.6
2022-11-20T09:06:06.081Z,4.3
2022-11-20T09:11:06.097Z,4.6
2022-11-20T09:16:16.376Z,4.8
2022-11-20T09:22:06.072Z,5.3
2022-11-20T09:27:06.137Z,5.4
2022-11-20T09:32:06.230Z,5
2022-11-20T09:37:07.794Z,5.2
2022-11-20T09:42:06.319Z,4.6
2022-11-20T09:47:06.342Z,4.3
2022-11-20T09:52:16.333Z,5.1
2022-11-20T09:57:16.415Z,5.3
2022-11-20T10:02:16.580Z,5.6
2022-11-20T10:08:06.400Z,5.2
2022-11-20T10:13:16.401Z,5.4
2022-11-20T10:19:06.258Z,5.5
2022-11-20T10:24:06.297Z,6
2022-11-20T10:29:16.474Z,5.4
2022-11-20T10:34:22.411Z,5.7
2022-11-20T10:40:06.276Z,6.2
2022-11-20T10:45:06.831Z,6
2022-11-20T10:50:06.659Z,5.9
2022-11-20T10:55:16.387Z,5
2022-11-20T11:00:16.467Z,5.4
2022-11-20T11:06:06.284Z,5.2
2022-11-20T11:11:06.421Z,6.1
2022-11-20T11:16:06.949Z,6.5
2022-11-20T11:21:16.382Z,5.9
2022-11-20T11:26:16.710Z,6.3
2022-11-20T11:32:06.944Z,5.7
2022-11-20T11:37:16.376Z,6.3
2022-11-20T11:42:16.387Z,6
2022-11-20T11:48:06.264Z,5.9
2022-11-20T11:53:06.281Z,5.8
2022-11-20T11:58:16.394Z,5.8
2022-11-20T12:04:06.138Z,5.8
2022-11-20T12:09:06.246Z,6
2022-11-20T12:14:16.370Z,6.2
2022-11-20T12:19:16.388Z,6.2
2022-11-20T12:24:16.574Z,6.7
2022-11-20T12:30:06.157Z,6.5
2022-11-20T12:35:11.239Z,6.3
2022-11-20T12:40:06.365Z,6
2022-11-20T12:45:16.311Z,5.8
2022-11-20T12:50:16.364Z,6.2
2022-11-20T12:56:06.087Z,6
2022-11-20T13:01:06.346Z,5.7
2022-11-20T13:06:16.311Z,5.9
2022-11-20T13:11:16.330Z,6.1
2022-11-20T13:16:16.374Z,6.2
2022-11-20T13:22:06.223Z,6.3
2022-11-20T13:27:16.801Z,6.4
2022-11-20T13:33:06.251Z,6.5
2022-11-20T13:38:06.392Z,6.5
2022-11-20T13:43:16.370Z,6.6
2022-11-20T13:48:16.636Z,6.8
2022-11-20T13:54:06.267Z,6.3
2022-11-20T13:59:08.652Z,6.5
2022-11-20T14:04:16.274Z,6.3
2022-11-20T14:10:06.252Z,6.8
2022-11-20T14:15:16.270Z,6.5
2022-11-20T14:20:16.286Z,6.6
2022-11-20T14:25:16.359Z,6.3
2022-11-20T14:31:06.628Z,6
2022-11-20T14:36:16.348Z,6.4
2022-11-20T14:41:16.374Z,6.4
2022-11-20T14:47:06.079Z,6.2
2022-11-20T14:52:06.103Z,6.1
2022-11-20T14:57:16.371Z,5.8
2022-11-20T15:02:16.384Z,6.2
2022-11-20T15:08:06.057Z,6.3
2022-11-20T15:13:11.419Z,6.1
2022-11-20T15:18:16.404Z,6.2
2022-11-20T15:24:06.038Z,6.2
2022-11-20T15:29:16.346Z,6.1
2022-11-20T15:35:06.034Z,5.9
2022-11-20T15:40:06.084Z,6.1
2022-11-20T15:45:06.271Z,6
2022-11-20T15:50:16.343Z,6.1
2022-11-20T15:55:16.415Z,6.4
2022-11-20T16:01:06.251Z,6.3
2022-11-20T16:06:06.292Z,5.8
2022-11-20T16:11:16.385Z,5.8
2022-11-20T16:17:06.264Z,5.7
2022-11-20T16:22:06.252Z,6.2
2022-11-20T16:27:16.350Z,6.1
2022-11-20T16:33:06.084Z,6.1
2022-11-20T16:38:16.311Z,6.1
2022-11-20T16:44:06.121Z,6.4
2022-11-20T16:49:16.404Z,6.5
2022-11-20T16:55:05.977Z,6.6
2022-11-20T17:00:06.270Z,6.6
2022-11-20T17:05:16.316Z,6.5
2022-11-20T17:10:16.384Z,6.5
2022-11-20T17:16:06.372Z,6.4
2022-11-20T17:21:16.540Z,6.5
2022-11-20T17:27:06.229Z,6.4
2022-11-20T17:32:06.299Z,6.4
2022-11-20T17:37:16.347Z,6.2
2022-11-20T17:42:16.524Z,6.2
2022-11-20T17:48:06.224Z,6.3
2022-11-20T17:53:06.244Z,6.3
2022-11-20T17:58:06.433Z,5.9
2022-11-20T18:03:16.277Z,6.2
2022-11-20T18:08:16.309Z,6.3
2022-11-20T18:14:06.217Z,6.3
2022-11-20T18:19:16.587Z,6.1
2022-11-20T18:25:16.347Z,6
2022-11-20T18:31:06.057Z,6.2
2022-11-20T18:36:06.216Z,6.1
2022-11-20T18:41:07.168Z,6.2
2022-11-20T18:47:12.755Z,6.3
2022-11-20T18:52:06.304Z,6.4
2022-11-20T18:57:16.276Z,6.3
2022-11-20T19:02:16.293Z,6.3
2022-11-20T19:08:06.230Z,6.3
2022-11-20T19:13:06.236Z,6.4
2022-11-20T19:18:16.238Z,6.3
2022-11-20T19:23:16.720Z,6.6
2022-11-20T19:29:06.179Z,6.6
2022-11-20T19:34:16.500Z,6.7
2022-11-20T19:40:06.195Z,6.7
2022-11-20T19:45:06.209Z,6.6
2022-11-20T19:50:06.252Z,6.9
2022-11-20T19:55:16.495Z,7
2022-11-20T20:01:06.214Z,6.9
2022-11-20T20:06:06.231Z,7
2022-11-20T20:11:16.250Z,7
2022-11-20T20:17:06.249Z,7
2022-11-20T20:22:16.495Z,7.2
2022-11-20T20:28:06.031Z,7.1
2022-11-20T20:33:08.787Z,7.2
2022-11-20T20:38:16.889Z,7.5
2022-11-20T20:44:06.265Z,7.1
2022-11-20T20:49:16.528Z,7.2
2022-11-20T20:55:06.381Z,7.4
2022-11-20T21:00:06.037Z,7.3
2022-11-20T21:05:16.286Z,7.3
2022-11-20T21:10:21.072Z,7.5
2022-11-20T21:16:05.995Z,7.4
2022-11-20T21:21:06.022Z,7.1
2022-11-20T21:26:16.257Z,7.4
2022-11-20T21:32:06.003Z,7.4
2022-11-20T21:37:16.223Z,7.2
2022-11-20T21:42:16.263Z,7.2
2022-11-20T21:48:06.017Z,7.2
2022-11-20T21:53:06.014Z,7.1
2022-11-20T21:58:06.053Z,7.2
2022-11-20T22:03:06.176Z,7.1
2022-11-20T22:08:06.218Z,7
2022-11-20T22:13:16.464Z,7
2022-11-20T22:18:16.478Z,7
2022-11-20T22:23:16.528Z,6.9
2022-11-20T22:29:06.074Z,7
2022-11-20T22:34:06.183Z,6.9
2022-11-20T22:39:06.187Z,6.8
2022-11-20T22:44:16.434Z,6.9
2022-11-20T22:49:16.468Z,7
2022-11-20T22:55:06.167Z,6.9
2022-11-20T23:00:06.178Z,6.9
2022-11-20T23:05:06.204Z,6.9
2022-11-20T23:10:16.470Z,7
2022-11-20T23:15:16.626Z,6.9
2022-11-20T23:21:06.245Z,6.9
2022-11-20T23:26:16.226Z,6.8
2022-11-20T23:31:16.490Z,6.8
2022-11-20T23:37:06.176Z,6.8
2022-11-20T23:42:16.436Z,6.8
2022-11-20T23:47:16.475Z,6.7
2022-11-20T23:52:16.485Z,7
2022-11-20T23:58:06.341Z,6.8
